Hoback Junction, Wyoming
Current Conditions -  °F | °C
As of 1:55 AM on Friday 24 Oct 2014 (Local Time) from KJAC Reporting Station
Overcast Overcast  
Wind Chill: 50°   Ceiling: 9000
Heat Index: 50°   Visibility: 10mi
Dew Point: 27°   Wind: 12mph
Humidity: 40%   Direction: 180°S
Pressure: 30.16"   Gusts: NA
Location:  43.4143°N, 110.582°W
Report Text: KJAC 240755Z AUTO 18010KT 10SM OVC090 10/M03 A3016 RMK AO1
Loading
Personal Weather Stations






























Interactive Weather Map New forecast layout! Learn more

10-Day Weather Forecast

Advertisements
Track Severe Weather on mobile